createdAt,value
2023-12-30T00:02:00.801Z,39.38
2023-12-30T00:04:30.599Z,36.00
2023-12-30T00:07:00.617Z,37.50
2023-12-30T00:09:30.365Z,37.92
2023-12-30T00:12:00.441Z,40.17
2023-12-30T00:14:30.542Z,39.10
2023-12-30T00:17:00.726Z,44.35
2023-12-30T00:19:30.629Z,41.88
2023-12-30T00:22:00.935Z,45.53
2023-12-30T00:24:30.660Z,42.72
2023-12-30T00:27:00.554Z,44.38
2023-12-30T00:29:30.230Z,46.03
2023-12-30T00:32:00.390Z,43.50
2023-12-30T00:34:30.166Z,41.67
2023-12-30T00:37:00.520Z,39.33
2023-12-30T00:39:31.849Z,36.88
2023-12-30T00:42:02.835Z,63.08
2023-12-30T00:44:32.723Z,50.10
2023-12-30T00:47:02.488Z,30.67
2023-12-30T00:49:32.495Z,24.42
2023-12-30T00:52:02.587Z,21.98
2023-12-30T00:54:38.320Z,32.15
2023-12-30T00:57:14.509Z,20.35
2023-12-30T00:59:44.305Z,22.48
2023-12-30T01:02:14.276Z,23.20
2023-12-30T01:04:44.421Z,21.02
2023-12-30T01:07:15.018Z,19.67
2023-12-30T01:09:44.782Z,18.55
2023-12-30T01:12:14.917Z,18.17
2023-12-30T01:14:44.660Z,19.65
2023-12-30T01:17:15.311Z,17.23
2023-12-30T01:19:45.572Z,18.70
2023-12-30T01:22:15.763Z,19.45
2023-12-30T01:24:45.567Z,16.83
2023-12-30T01:27:15.777Z,14.98
2023-12-30T01:29:45.529Z,13.95
2023-12-30T01:32:15.880Z,11.52
2023-12-30T01:34:45.685Z,13.10
2023-12-30T01:37:15.830Z,11.73
2023-12-30T01:39:47.663Z,11.15
2023-12-30T01:42:19.404Z,9.75
2023-12-30T01:44:49.400Z,10.13
2023-12-30T01:47:19.577Z,9.02
2023-12-30T01:49:49.615Z,9.43
2023-12-30T01:52:20.055Z,9.00
2023-12-30T01:54:50.300Z,8.65
2023-12-30T01:57:20.325Z,7.00
2023-12-30T01:59:53.751Z,6.55
2023-12-30T02:02:25.452Z,18.42
2023-12-30T02:04:55.366Z,7.38
2023-12-30T02:07:25.256Z,7.00
2023-12-30T02:09:55.261Z,6.90
2023-12-30T02:12:25.000Z,7.28
2023-12-30T02:14:54.933Z,6.57
2023-12-30T02:17:25.431Z,7.90
2023-12-30T02:19:56.489Z,7.07
2023-12-30T02:22:26.324Z,6.95
2023-12-30T02:24:56.535Z,22.33
2023-12-30T02:27:26.211Z,22.75
2023-12-30T02:29:56.072Z,21.38
2023-12-30T02:32:25.801Z,7.18
2023-12-30T02:34:55.717Z,7.43
2023-12-30T02:37:25.460Z,7.72
2023-12-30T02:39:58.355Z,8.18
2023-12-30T02:42:29.345Z,7.38
2023-12-30T02:44:59.389Z,8.70
2023-12-30T02:47:29.100Z,9.20
2023-12-30T02:49:59.078Z,8.40
2023-12-30T02:52:28.980Z,8.77
2023-12-30T02:54:59.263Z,8.85
2023-12-30T02:57:29.226Z,8.77
2023-12-30T02:59:59.123Z,8.55
2023-12-30T03:02:28.976Z,8.93
2023-12-30T03:04:59.899Z,22.20
2023-12-30T03:07:30.069Z,22.83
2023-12-30T03:09:59.839Z,8.98
2023-12-30T03:12:30.715Z,8.27
2023-12-30T03:15:00.555Z,7.60
2023-12-30T03:17:30.451Z,9.07
2023-12-30T03:20:00.481Z,8.70
2023-12-30T03:22:30.349Z,8.88
2023-12-30T03:25:01.167Z,9.60
2023-12-30T03:27:30.967Z,9.52
2023-12-30T03:30:01.081Z,10.52
2023-12-30T03:32:31.545Z,10.10
2023-12-30T03:35:01.539Z,16.45
2023-12-30T03:37:31.338Z,19.60
2023-12-30T03:40:03.407Z,21.02
2023-12-30T03:42:33.452Z,14.82
2023-12-30T03:45:04.146Z,9.23
2023-12-30T03:47:34.309Z,7.53
2023-12-30T03:50:04.667Z,6.97
2023-12-30T03:52:34.781Z,7.70
2023-12-30T03:55:04.730Z,7.55
2023-12-30T03:57:35.002Z,7.57
2023-12-30T04:00:05.706Z,7.18
2023-12-30T04:02:42.778Z,7.00
2023-12-30T04:05:13.570Z,9.13
2023-12-30T04:07:43.286Z,9.77
2023-12-30T04:10:15.794Z,9.68
2023-12-30T04:12:46.225Z,7.50
2023-12-30T04:15:16.813Z,7.78
2023-12-30T04:17:46.901Z,7.05
2023-12-30T04:20:16.642Z,8.55
2023-12-30T04:22:47.058Z,9.18
2023-12-30T04:25:17.190Z,9.52
2023-12-30T04:27:47.597Z,8.98
2023-12-30T04:30:17.738Z,9.55
2023-12-30T04:32:47.796Z,8.80
2023-12-30T04:35:17.666Z,9.00
2023-12-30T04:37:47.630Z,8.98
2023-12-30T04:40:20.675Z,8.07
2023-12-30T04:42:50.957Z,8.93
2023-12-30T04:45:20.691Z,8.27
2023-12-30T04:47:50.783Z,7.03
2023-12-30T04:50:20.863Z,6.93
2023-12-30T04:52:50.953Z,6.15
2023-12-30T04:55:20.743Z,6.38
2023-12-30T04:57:52.336Z,6.68
2023-12-30T05:00:24.024Z,20.55
2023-12-30T05:02:54.260Z,21.02
2023-12-30T05:05:24.024Z,20.20
2023-12-30T05:07:54.120Z,20.52
2023-12-30T05:10:23.832Z,19.33
2023-12-30T05:12:54.340Z,19.23
2023-12-30T05:15:24.086Z,18.88
2023-12-30T05:17:54.278Z,19.48
2023-12-30T05:20:24.196Z,20.27
2023-12-30T05:22:54.181Z,6.90
2023-12-30T05:25:24.043Z,7.30
2023-12-30T05:27:54.052Z,5.93
2023-12-30T05:30:24.715Z,5.57
2023-12-30T05:32:54.698Z,6.30
2023-12-30T05:35:24.376Z,5.90
2023-12-30T05:37:54.431Z,6.30
2023-12-30T05:40:26.369Z,5.70
2023-12-30T05:42:56.603Z,5.60
2023-12-30T05:45:26.278Z,6.32
2023-12-30T05:47:56.392Z,6.03
2023-12-30T05:50:26.289Z,6.57
2023-12-30T05:52:56.582Z,6.10
2023-12-30T05:55:26.387Z,8.77
2023-12-30T05:57:56.468Z,26.67
2023-12-30T06:00:26.279Z,5.97
2023-12-30T06:02:56.392Z,6.60
2023-12-30T06:05:26.123Z,5.85
2023-12-30T06:07:56.140Z,6.30
2023-12-30T06:10:27.061Z,6.65
2023-12-30T06:12:57.172Z,7.20
2023-12-30T06:15:26.881Z,7.22
2023-12-30T06:17:57.931Z,6.65
2023-12-30T06:20:28.039Z,7.40
2023-12-30T06:22:57.784Z,8.10
2023-12-30T06:25:27.781Z,8.27
2023-12-30T06:27:57.592Z,8.13
2023-12-30T06:30:27.522Z,8.88
2023-12-30T06:32:57.427Z,8.57
2023-12-30T06:35:27.398Z,8.73
2023-12-30T06:37:57.168Z,8.70
2023-12-30T06:40:29.492Z,8.18
2023-12-30T06:43:00.908Z,8.73
2023-12-30T06:45:31.001Z,7.88
2023-12-30T06:48:00.692Z,8.05
2023-12-30T06:50:30.642Z,8.82
2023-12-30T06:53:04.117Z,9.05
2023-12-30T06:55:38.908Z,9.40
2023-12-30T06:58:15.337Z,8.90
2023-12-30T07:00:45.155Z,8.43
2023-12-30T07:03:16.466Z,13.85
2023-12-30T07:05:46.291Z,15.00
2023-12-30T07:08:16.731Z,7.60
2023-12-30T07:10:46.401Z,10.77
2023-12-30T07:13:17.306Z,7.47
2023-12-30T07:15:48.150Z,11.38
2023-12-30T07:18:18.439Z,7.45
2023-12-30T07:20:48.363Z,7.38
2023-12-30T07:23:18.258Z,6.82
2023-12-30T07:25:50.259Z,7.13
2023-12-30T07:28:20.412Z,7.28
2023-12-30T07:30:50.234Z,7.75
2023-12-30T07:33:20.256Z,7.15
2023-12-30T07:35:51.845Z,6.70
2023-12-30T07:38:23.102Z,6.47
2023-12-30T07:40:54.823Z,6.55
2023-12-30T07:43:25.143Z,7.13
2023-12-30T07:45:55.440Z,7.10
2023-12-30T07:48:25.696Z,7.43
2023-12-30T07:50:55.413Z,6.40
2023-12-30T07:53:25.598Z,9.05
2023-12-30T07:55:55.366Z,9.18
2023-12-30T07:58:25.597Z,6.82
2023-12-30T08:00:55.446Z,6.45
2023-12-30T08:03:25.515Z,6.47
2023-12-30T08:05:55.436Z,6.35
2023-12-30T08:08:25.699Z,6.43
2023-12-30T08:10:55.446Z,6.38
2023-12-30T08:13:25.538Z,6.40
2023-12-30T08:15:55.982Z,6.15
2023-12-30T08:18:26.848Z,6.00
2023-12-30T08:20:56.817Z,6.10
2023-12-30T08:23:26.632Z,5.57
2023-12-30T08:25:56.835Z,5.65
2023-12-30T08:28:26.633Z,6.00
2023-12-30T08:30:57.056Z,6.03
2023-12-30T08:33:26.904Z,5.70
2023-12-30T08:35:57.001Z,5.82
2023-12-30T08:38:26.740Z,5.93
2023-12-30T08:40:58.344Z,6.20
2023-12-30T08:43:28.733Z,5.75
2023-12-30T08:45:58.903Z,5.90
2023-12-30T08:48:28.917Z,6.03
2023-12-30T08:50:58.881Z,5.70
2023-12-30T08:53:28.619Z,5.70
2023-12-30T08:55:59.269Z,6.30
2023-12-30T08:58:29.090Z,6.60
2023-12-30T09:00:59.184Z,6.43
2023-12-30T09:03:29.159Z,6.57
2023-12-30T09:05:59.244Z,6.30
2023-12-30T09:08:29.548Z,5.93
2023-12-30T09:10:59.669Z,6.03
2023-12-30T09:13:29.508Z,6.13
2023-12-30T09:15:59.483Z,6.40
2023-12-30T09:18:29.194Z,6.75
2023-12-30T09:20:59.197Z,6.57
2023-12-30T09:23:29.414Z,6.60
2023-12-30T09:26:00.407Z,6.60
2023-12-30T09:28:30.485Z,6.80
2023-12-30T09:31:00.399Z,6.97
2023-12-30T09:33:31.004Z,6.35
2023-12-30T09:36:01.012Z,6.72
2023-12-30T09:38:30.903Z,6.72
2023-12-30T09:41:04.137Z,7.20
2023-12-30T09:43:35.432Z,7.00
2023-12-30T09:46:06.816Z,7.05
2023-12-30T09:48:39.271Z,7.63
2023-12-30T09:51:09.606Z,7.35
2023-12-30T09:53:41.013Z,6.80
2023-12-30T09:56:11.382Z,8.27
2023-12-30T09:58:43.217Z,8.10
2023-12-30T10:01:13.926Z,8.68
2023-12-30T10:03:43.901Z,8.90
2023-12-30T10:06:17.195Z,8.50
2023-12-30T10:08:47.702Z,8.88
2023-12-30T10:11:19.092Z,8.63
2023-12-30T10:13:49.175Z,8.25
2023-12-30T10:16:19.835Z,8.23
2023-12-30T10:18:50.059Z,7.90
2023-12-30T10:21:19.984Z,8.45
2023-12-30T10:23:54.164Z,7.78
2023-12-30T10:26:24.977Z,8.35
2023-12-30T10:28:55.244Z,9.10
2023-12-30T10:31:24.973Z,8.85
2023-12-30T10:33:56.141Z,8.63
2023-12-30T10:36:27.187Z,9.30
2023-12-30T10:38:58.131Z,9.18
2023-12-30T10:41:29.381Z,9.15
2023-12-30T10:43:59.579Z,8.77
2023-12-30T10:46:29.886Z,9.63
2023-12-30T10:49:06.393Z,12.90
2023-12-30T10:51:37.675Z,10.25
2023-12-30T10:54:09.903Z,10.30
2023-12-30T10:57:05.461Z,10.80
2023-12-30T10:59:38.792Z,10.40
2023-12-30T11:02:11.030Z,11.40
2023-12-30T11:04:42.304Z,11.63
2023-12-30T11:07:15.954Z,11.95
2023-12-30T11:09:46.098Z,11.48
2023-12-30T11:12:16.992Z,11.90
2023-12-30T11:14:47.348Z,14.13
2023-12-30T11:17:36.449Z,15.98
2023-12-30T11:20:33.215Z,16.55
2023-12-30T11:23:06.069Z,15.68
2023-12-30T11:25:43.076Z,16.45
2023-12-30T11:28:21.419Z,16.73
2023-12-30T11:31:03.446Z,15.25
2023-12-30T11:33:33.470Z,18.15
2023-12-30T11:36:05.465Z,19.48
2023-12-30T11:38:36.965Z,18.90
2023-12-30T11:41:08.427Z,18.95
2023-12-30T11:43:41.241Z,19.05
2023-12-30T11:46:11.228Z,18.55
2023-12-30T11:48:40.953Z,19.30
2023-12-30T11:51:11.133Z,17.92
2023-12-30T11:53:41.306Z,16.52
2023-12-30T11:56:12.414Z,16.65
2023-12-30T11:58:42.807Z,17.13
2023-12-30T12:01:13.129Z,29.30
2023-12-30T12:03:43.776Z,20.52
2023-12-30T12:06:14.730Z,21.15
2023-12-30T12:08:44.933Z,31.80
2023-12-30T12:11:15.698Z,17.83
2023-12-30T12:13:45.956Z,20.38
2023-12-30T12:16:16.226Z,20.88
2023-12-30T12:18:46.486Z,20.45
2023-12-30T12:21:17.434Z,25.00
2023-12-30T12:23:47.658Z,23.83
2023-12-30T12:26:18.818Z,24.33
2023-12-30T12:28:49.194Z,23.98
2023-12-30T12:31:20.638Z,23.42
2023-12-30T12:33:52.460Z,23.92
2023-12-30T12:36:22.604Z,22.88
2023-12-30T12:38:53.187Z,24.92
2023-12-30T12:41:23.091Z,25.02
2023-12-30T12:43:55.079Z,25.65
2023-12-30T12:46:25.169Z,26.38
2023-12-30T12:48:55.005Z,25.73
2023-12-30T12:51:26.910Z,23.70
2023-12-30T12:53:58.143Z,27.40
2023-12-30T12:56:27.908Z,26.33
2023-12-30T12:58:58.050Z,23.90
2023-12-30T13:01:28.010Z,22.98
2023-12-30T13:04:00.834Z,24.30
2023-12-30T13:06:31.158Z,23.92
2023-12-30T13:09:02.381Z,30.48
2023-12-30T13:11:35.108Z,42.22
2023-12-30T13:14:12.120Z,37.35
2023-12-30T13:16:42.880Z,29.70
2023-12-30T13:19:13.675Z,26.23
2023-12-30T13:21:44.030Z,25.02
2023-12-30T13:24:14.272Z,22.23
2023-12-30T13:26:46.357Z,23.50
2023-12-30T13:29:18.006Z,25.25
2023-12-30T13:31:50.318Z,24.75
2023-12-30T13:34:20.691Z,24.63
2023-12-30T13:36:59.496Z,24.92
2023-12-30T13:39:29.980Z,26.15
2023-12-30T13:42:01.574Z,32.10
2023-12-30T13:44:44.029Z,29.67
2023-12-30T13:47:33.929Z,30.30
2023-12-30T13:50:18.170Z,29.13
2023-12-30T13:52:49.919Z,27.40
2023-12-30T13:55:21.410Z,27.77
2023-12-30T13:57:55.356Z,33.38
2023-12-30T14:00:26.138Z,29.80
2023-12-30T14:02:56.980Z,26.40
2023-12-30T14:05:33.371Z,26.77
2023-12-30T14:08:20.406Z,25.73
2023-12-30T14:10:51.146Z,23.85
2023-12-30T14:13:25.070Z,25.60
2023-12-30T14:15:55.575Z,26.52
2023-12-30T14:18:25.423Z,27.60
2023-12-30T14:20:56.512Z,28.70
2023-12-30T14:23:26.562Z,41.42
2023-12-30T14:25:56.694Z,54.28
2023-12-30T14:28:26.593Z,57.30
2023-12-30T14:30:56.656Z,56.28
2023-12-30T14:33:26.603Z,59.65
2023-12-30T14:35:56.682Z,73.68
2023-12-30T14:38:26.495Z,82.65
2023-12-30T14:40:56.514Z,86.65
2023-12-30T14:43:26.591Z,73.68
2023-12-30T14:45:58.295Z,67.40
2023-12-30T14:48:29.438Z,58.75
2023-12-30T14:50:59.385Z,53.00
2023-12-30T14:53:29.489Z,47.20
2023-12-30T14:55:59.361Z,45.30
2023-12-30T14:58:29.105Z,45.28
2023-12-30T15:00:59.672Z,42.67
2023-12-30T15:03:30.429Z,48.08
2023-12-30T15:06:00.272Z,35.05
2023-12-30T15:08:30.300Z,35.40
2023-12-30T15:11:00.037Z,33.28
2023-12-30T15:13:29.968Z,34.25
2023-12-30T15:15:59.820Z,33.50
2023-12-30T15:18:29.887Z,34.60
2023-12-30T15:20:59.673Z,30.55
2023-12-30T15:23:29.607Z,31.05
2023-12-30T15:26:00.268Z,31.83
2023-12-30T15:28:30.369Z,32.35
2023-12-30T15:31:00.286Z,32.60
2023-12-30T15:33:30.600Z,30.35
2023-12-30T15:36:00.816Z,28.20
2023-12-30T15:38:30.764Z,34.40
2023-12-30T15:41:01.062Z,45.10
2023-12-30T15:43:34.020Z,51.63
2023-12-30T15:46:10.090Z,43.20
2023-12-30T15:48:41.133Z,54.10
2023-12-30T15:51:11.181Z,57.17
2023-12-30T15:53:41.681Z,59.78
2023-12-30T15:56:11.671Z,72.65
2023-12-30T15:58:41.464Z,79.47
2023-12-30T16:01:11.577Z,71.25
2023-12-30T16:03:41.439Z,64.13
2023-12-30T16:06:11.991Z,70.80
2023-12-30T16:08:41.948Z,66.03
2023-12-30T16:11:12.768Z,53.92
2023-12-30T16:13:42.807Z,46.60
2023-12-30T16:16:12.630Z,51.88
2023-12-30T16:18:42.630Z,52.85
2023-12-30T16:21:12.398Z,49.40
2023-12-30T16:23:42.259Z,49.42
2023-12-30T16:26:12.635Z,45.58
2023-12-30T16:28:46.057Z,58.47
2023-12-30T16:31:16.173Z,49.83
2023-12-30T16:33:47.522Z,43.70
2023-12-30T16:36:18.329Z,39.65
2023-12-30T16:38:48.994Z,37.55
2023-12-30T16:41:19.081Z,31.17
2023-12-30T16:43:48.905Z,29.55
2023-12-30T16:46:21.230Z,27.80
2023-12-30T16:48:51.296Z,28.35
2023-12-30T16:51:21.043Z,26.05
2023-12-30T16:53:51.307Z,22.80
2023-12-30T16:56:21.433Z,23.73
2023-12-30T16:58:51.374Z,21.13
2023-12-30T17:01:21.296Z,21.50
2023-12-30T17:03:51.791Z,22.25
2023-12-30T17:06:21.670Z,21.42
2023-12-30T17:08:51.799Z,21.13
2023-12-30T17:11:21.789Z,20.85
2023-12-30T17:13:54.111Z,21.33
2023-12-30T17:16:24.687Z,20.48
2023-12-30T17:18:54.469Z,22.02
2023-12-30T17:21:24.657Z,22.02
2023-12-30T17:23:54.773Z,21.67
2023-12-30T17:26:24.602Z,21.20
2023-12-30T17:28:55.740Z,21.73
2023-12-30T17:31:25.892Z,20.45
2023-12-30T17:33:55.770Z,19.48
2023-12-30T17:36:27.655Z,18.27
2023-12-30T17:38:58.982Z,18.10
2023-12-30T17:41:29.264Z,18.45
2023-12-30T17:44:00.237Z,19.02
2023-12-30T17:46:34.526Z,17.27
2023-12-30T17:49:04.669Z,17.35
2023-12-30T17:51:34.852Z,17.20
2023-12-30T17:54:06.043Z,16.73
2023-12-30T17:56:35.923Z,17.92
2023-12-30T17:59:06.615Z,17.70
2023-12-30T18:01:37.727Z,18.50
2023-12-30T18:04:07.779Z,18.80
2023-12-30T18:06:38.164Z,16.70
2023-12-30T18:09:08.363Z,17.85
2023-12-30T18:11:38.539Z,19.15
2023-12-30T18:14:14.055Z,19.60
2023-12-30T18:16:44.947Z,18.70
2023-12-30T18:19:15.057Z,18.10
2023-12-30T18:21:45.200Z,18.70
2023-12-30T18:24:15.141Z,18.13
2023-12-30T18:26:45.064Z,17.38
2023-12-30T18:29:15.104Z,17.65
2023-12-30T18:31:44.791Z,17.65
2023-12-30T18:34:16.684Z,19.13
2023-12-30T18:36:47.538Z,18.13
2023-12-30T18:39:17.363Z,17.88
2023-12-30T18:41:47.205Z,17.98
2023-12-30T18:44:17.384Z,18.35
2023-12-30T18:46:49.648Z,17.60
2023-12-30T18:49:19.874Z,15.68
2023-12-30T18:51:49.654Z,15.73
2023-12-30T18:54:19.806Z,14.18
2023-12-30T18:56:49.603Z,15.02
2023-12-30T18:59:19.653Z,15.10
2023-12-30T19:01:49.717Z,51.20
2023-12-30T19:04:19.975Z,15.20
2023-12-30T19:06:49.894Z,15.68
2023-12-30T19:09:20.902Z,15.73
2023-12-30T19:11:50.871Z,16.60
2023-12-30T19:14:20.769Z,16.42
2023-12-30T19:16:50.703Z,15.32
2023-12-30T19:19:20.511Z,15.02
2023-12-30T19:21:51.650Z,17.00
2023-12-30T19:24:21.649Z,17.25
2023-12-30T19:26:52.004Z,17.58
2023-12-30T19:29:22.715Z,16.92
2023-12-30T19:31:52.620Z,16.70
2023-12-30T19:34:22.920Z,16.25
2023-12-30T19:36:53.372Z,16.08
2023-12-30T19:39:23.117Z,15.18
2023-12-30T19:41:53.444Z,15.35
2023-12-30T19:44:23.383Z,15.23
2023-12-30T19:46:53.955Z,14.65
2023-12-30T19:49:24.023Z,13.95
2023-12-30T19:51:54.074Z,14.57
2023-12-30T19:54:26.162Z,14.25
2023-12-30T19:56:56.305Z,13.63
2023-12-30T19:59:27.146Z,14.57
2023-12-30T20:01:57.444Z,14.55
2023-12-30T20:04:27.671Z,13.55
2023-12-30T20:06:57.834Z,14.20
2023-12-30T20:09:27.643Z,13.80
2023-12-30T20:11:57.766Z,14.10
2023-12-30T20:14:27.705Z,13.68
2023-12-30T20:17:03.408Z,13.52
2023-12-30T20:19:33.672Z,14.38
2023-12-30T20:22:03.808Z,28.08
2023-12-30T20:24:34.419Z,15.52
2023-12-30T20:27:04.231Z,28.35
2023-12-30T20:29:37.063Z,27.60
2023-12-30T20:32:07.737Z,18.42
2023-12-30T20:34:38.088Z,16.50
2023-12-30T20:37:07.909Z,15.73
2023-12-30T20:39:38.218Z,17.02
2023-12-30T20:42:08.821Z,18.73
2023-12-30T20:44:40.303Z,21.95
2023-12-30T20:47:13.529Z,21.60
2023-12-30T20:49:47.081Z,21.67
2023-12-30T20:52:17.371Z,22.77
2023-12-30T20:54:47.185Z,23.77
2023-12-30T20:57:17.444Z,24.52
2023-12-30T20:59:47.209Z,23.58
2023-12-30T21:02:18.304Z,20.40
2023-12-30T21:04:48.759Z,19.05
2023-12-30T21:07:19.273Z,18.02
2023-12-30T21:09:49.014Z,17.90
2023-12-30T21:12:19.869Z,16.45
2023-12-30T21:14:50.176Z,15.63
2023-12-30T21:17:20.394Z,15.95
2023-12-30T21:19:51.489Z,16.15
2023-12-30T21:22:21.475Z,15.57
2023-12-30T21:24:51.228Z,17.15
2023-12-30T21:27:21.326Z,15.90
2023-12-30T21:29:51.029Z,15.18
2023-12-30T21:32:21.150Z,13.18
2023-12-30T21:34:51.721Z,13.68
2023-12-30T21:37:23.604Z,13.63
2023-12-30T21:39:54.274Z,13.45
2023-12-30T21:42:25.656Z,12.63
2023-12-30T21:44:56.431Z,12.50
2023-12-30T21:47:28.438Z,12.60
2023-12-30T21:49:58.996Z,12.95
2023-12-30T21:52:28.843Z,12.85
2023-12-30T21:54:58.890Z,13.38
2023-12-30T21:57:28.974Z,13.55
2023-12-30T21:59:58.897Z,13.15
2023-12-30T22:02:29.716Z,12.68
2023-12-30T22:04:59.715Z,12.13
2023-12-30T22:07:29.643Z,13.00
2023-12-30T22:10:00.584Z,11.88
2023-12-30T22:12:33.959Z,13.13
2023-12-30T22:15:04.317Z,13.00
2023-12-30T22:17:35.928Z,12.88
2023-12-30T22:20:07.774Z,12.38
2023-12-30T22:22:38.598Z,12.82
2023-12-30T22:25:08.553Z,13.50
2023-12-30T22:27:38.767Z,15.10
2023-12-30T22:30:09.664Z,14.18
2023-12-30T22:32:40.777Z,14.30
2023-12-30T22:35:17.418Z,14.60
2023-12-30T22:37:48.071Z,13.80
2023-12-30T22:40:18.436Z,13.85
2023-12-30T22:42:48.670Z,14.95
2023-12-30T22:45:19.997Z,13.80
2023-12-30T22:47:52.097Z,14.23
2023-12-30T22:50:22.543Z,14.27
2023-12-30T22:52:52.703Z,13.95
2023-12-30T22:55:22.900Z,14.07
2023-12-30T22:57:52.654Z,13.70
2023-12-30T23:00:29.394Z,30.70
2023-12-30T23:03:00.284Z,25.90
2023-12-30T23:05:30.450Z,21.00
2023-12-30T23:08:00.606Z,17.55
2023-12-30T23:10:31.102Z,15.77
2023-12-30T23:13:03.034Z,14.27
2023-12-30T23:15:33.290Z,13.65
2023-12-30T23:18:03.134Z,14.77
2023-12-30T23:20:33.651Z,16.55
2023-12-30T23:23:04.416Z,15.70
2023-12-30T23:25:34.409Z,16.85
2023-12-30T23:28:05.853Z,16.20
2023-12-30T23:30:35.706Z,16.55
2023-12-30T23:33:05.887Z,16.98
2023-12-30T23:35:36.165Z,16.08
2023-12-30T23:38:06.498Z,17.00
2023-12-30T23:40:36.680Z,17.88
2023-12-30T23:43:07.549Z,18.63
2023-12-30T23:45:37.489Z,18.75
2023-12-30T23:48:09.144Z,20.75
2023-12-30T23:50:39.360Z,20.88
2023-12-30T23:53:09.933Z,22.67
2023-12-30T23:55:40.143Z,22.23
2023-12-30T23:58:11.235Z,21.52
